Terminal Aerodrome Forecast
Issued by NWS Sioux Falls, SD

Home | Current Version | Previous Version | Graphics & Text | Print | Product List | Glossary Off
Versions: 1 2 3 4 5 6 7 8 9 10 11 12

000
FTUS43 KFSD 202300
TAFHON
TAF
KHON 202333Z 2100/2124 17007KT P6SM SCT090 BKN200
     FM210200 VRB04KT P6SM SCT080 BKN150
      TEMPO 2102/2104 TSRA BKN060CB
     FM210600 35014G22KT P6SM SCT070
     FM211000 35010KT P6SM SKC
     FM211400 33015G24KT P6SM SKC=

USA.gov is the U.S. government's official web portal to all federal, state and local government web resources and services.